Observation data for Guthrie on 07/20/2019      Previous  Date       Current Mesonet Observations  Soil Data  Daily Summary Page  Observations in Plain Language
KPFS 200500Z 16011KT 29/13 A2988 RMK A01 T02920129  RH  038%=      5-min Rain = 0
KPFS 200505Z 16010G15KT 29/13 A2988 RMK A01 T02910130  RH  039%=      5-min Rain = 0
KPFS 200510Z 16011KT 29/13 A2988 RMK A01 T02910132  RH  039%=      5-min Rain = 0
KPFS 200515Z 17012KT 29/13 A2988 RMK A01 T02920133  RH  039%=      5-min Rain = 0
KPFS 200520Z 17013KT 29/14 A2988 RMK A01 T02940135  RH  039%=      5-min Rain = 0
KPFS 200525Z 17013KT 29/14 A2988 RMK A01 T02940137  RH  040%=      5-min Rain = 0
KPFS 200530Z 17013KT 30/14 A2988 RMK A01 T02950138  RH  040%=      5-min Rain = 0
KPFS 200535Z 17012G18KT 29/14 A2988 RMK A01 T02940140  RH  041%=      5-min Rain = 0
KPFS 200540Z 17012G17KT 29/14 A2988 RMK A01 T02940141  RH  041%=      5-min Rain = 0
KPFS 200545Z 17012KT 29/14 A2988 RMK A01 T02940143  RH  041%=      5-min Rain = 0
KPFS 200550Z 17013KT 29/14 A2988 RMK A01 T02940144  RH  042%=      5-min Rain = 0
KPFS 200555Z 17013G18KT 29/15 A2988 RMK A01 T02940145  RH  042%=      5-min Rain = 0
KPFS 200600Z 17013G18KT 29/15 A2988 RMK A01 T02940146  RH  042%=      5-min Rain = 0
KPFS 200605Z 17012KT 29/15 A2988 RMK A01 T02920147  RH  043%=      5-min Rain = 0
KPFS 200610Z 17012KT 29/15 A2988 RMK A01 T02910148  RH  044%=      5-min Rain = 0
KPFS 200615Z 17012G17KT 29/15 A2988 RMK A01 T02900149  RH  044%=      5-min Rain = 0
KPFS 200620Z 17011KT 29/15 A2988 RMK A01 T02890150  RH  045%=      5-min Rain = 0
KPFS 200625Z 18012KT 29/15 A2988 RMK A01 T02880150  RH  045%=      5-min Rain = 0
KPFS 200630Z 18012KT 29/15 A2988 RMK A01 T02870151  RH  045%=      5-min Rain = 0
KPFS 200635Z 18012G17KT 29/15 A2988 RMK A01 T02880151  RH  045%=      5-min Rain = 0
KPFS 200640Z 18012KT 29/15 A2988 RMK A01 T02880152  RH  046%=      5-min Rain = 0
KPFS 200645Z 18013G19KT 29/15 A2988 RMK A01 T02870153  RH  046%=      5-min Rain = 0
KPFS 200650Z 18013KT 29/15 A2988 RMK A01 T02870153  RH  046%=      5-min Rain = 0
KPFS 200655Z 18014G20KT 29/15 A2988 RMK A01 T02870153  RH  046%=      5-min Rain = 0
KPFS 200700Z 18014KT 29/15 A2988 RMK A01 T02870153  RH  046%=      5-min Rain = 0
KPFS 200705Z 18014KT 29/15 A2988 RMK A01 T02860153  RH  046%=      5-min Rain = 0
KPFS 200710Z 18012KT 28/15 A2988 RMK A01 T02840153  RH  047%=      5-min Rain = 0
KPFS 200715Z 18012KT 28/15 A2988 RMK A01 T02820153  RH  048%=      5-min Rain = 0
KPFS 200720Z 17012KT 28/15 A2988 RMK A01 T02820153  RH  048%=      5-min Rain = 0
KPFS 200725Z 17011G16KT 28/15 A2988 RMK A01 T02800154  RH  048%=      5-min Rain = 0
KPFS 200730Z 18011KT 28/15 A2988 RMK A01 T02780154  RH  049%=      5-min Rain = 0
KPFS 200735Z 18010KT 28/16 A2988 RMK A01 T02770155  RH  049%=      5-min Rain = 0
KPFS 200740Z 17010KT 28/16 A2988 RMK A01 T02760155  RH  050%=      5-min Rain = 0
KPFS 200745Z 18010KT 28/16 A2988 RMK A01 T02750156  RH  050%=      5-min Rain = 0
KPFS 200750Z 17010KT 27/16 A2988 RMK A01 T02740156  RH  051%=      5-min Rain = 0
KPFS 200755Z 18010KT 27/16 A2988 RMK A01 T02730157  RH  051%=      5-min Rain = 0
KPFS 200800Z 18011KT 27/16 A2988 RMK A01 T02740157  RH  051%=      5-min Rain = 0
KPFS 200805Z 18010G15KT 27/16 A2988 RMK A01 T02740157  RH  051%=      5-min Rain = 0
KPFS 200810Z 18010KT 27/16 A2988 RMK A01 T02730158  RH  052%=      5-min Rain = 0
KPFS 200815Z 18010KT 27/16 A2988 RMK A01 T02740158  RH  052%=      5-min Rain = 0
KPFS 200820Z 18010KT 27/16 A2988 RMK A01 T02730158  RH  052%=      5-min Rain = 0
KPFS 200825Z 18010KT 27/16 A2988 RMK A01 T02710159  RH  053%=      5-min Rain = 0
KPFS 200830Z 18011G16KT 27/16 A2988 RMK A01 T02730159  RH  052%=      5-min Rain = 0
KPFS 200835Z 18012G17KT 27/16 A2988 RMK A01 T02740160  RH  052%=      5-min Rain = 0
KPFS 200840Z 18011KT 27/16 A2988 RMK A01 T02740160  RH  052%=      5-min Rain = 0
KPFS 200845Z 18012KT 27/16 A2988 RMK A01 T02730161  RH  053%=      5-min Rain = 0
KPFS 200850Z 18012KT 27/16 A2988 RMK A01 T02730161  RH  053%=      5-min Rain = 0
KPFS 200855Z 18012G17KT 27/16 A2988 RMK A01 T02710162  RH  054%=      5-min Rain = 0
KPFS 200900Z 18012KT 27/16 A2988 RMK A01 T02710162  RH  054%=      5-min Rain = 0
KPFS 200905Z 18011G16KT 27/16 A2988 RMK A01 T02700163  RH  054%=      5-min Rain = 0
KPFS 200910Z 18012KT 27/16 A2988 RMK A01 T02690163  RH  055%=      5-min Rain = 0
KPFS 200915Z 18012KT 27/16 A2988 RMK A01 T02690164  RH  055%=      5-min Rain = 0
KPFS 200920Z 18011KT 27/16 A2989 RMK A01 T02680164  RH  055%=      5-min Rain = 0
KPFS 200925Z 18010KT 27/16 A2989 RMK A01 T02670164  RH  056%=      5-min Rain = 0
KPFS 200930Z 18010KT 27/17 A2989 RMK A01 T02670165  RH  056%=      5-min Rain = 0
KPFS 200935Z 18009G14KT 26/17 A2989 RMK A01 T02640165  RH  057%=      5-min Rain = 0
KPFS 200940Z 18010KT 26/17 A2989 RMK A01 T02640165  RH  057%=      5-min Rain = 0
KPFS 200945Z 18010KT 26/17 A2989 RMK A01 T02630166  RH  058%=      5-min Rain = 0
KPFS 200950Z 18010KT 26/17 A2988 RMK A01 T02620166  RH  058%=      5-min Rain = 0
KPFS 200955Z 18010KT 26/17 A2988 RMK A01 T02600166  RH  059%=      5-min Rain = 0
KPFS 201000Z 18011KT 26/17 A2989 RMK A01 T02600166  RH  059%=      5-min Rain = 0
KPFS 201005Z 18010KT 26/17 A2988 RMK A01 T02590167  RH  059%=      5-min Rain = 0
KPFS 201010Z 18010KT 26/17 A2988 RMK A01 T02580167  RH  060%=      5-min Rain = 0
KPFS 201015Z 18010KT 26/17 A2988 RMK A01 T02570167  RH  060%=      5-min Rain = 0
KPFS 201020Z 18009KT 26/17 A2988 RMK A01 T02560168  RH  061%=      5-min Rain = 0
KPFS 201025Z 18010KT 26/17 A2988 RMK A01 T02550168  RH  062%=      5-min Rain = 0
KPFS 201030Z 18010KT 26/17 A2988 RMK A01 T02550168  RH  062%=      5-min Rain = 0
KPFS 201035Z 18010KT 25/17 A2988 RMK A01 T02530169  RH  062%=      5-min Rain = 0
KPFS 201040Z 18010KT 25/17 A2988 RMK A01 T02520169  RH  063%=      5-min Rain = 0
KPFS 201045Z 18009KT 25/17 A2989 RMK A01 T02520170  RH  063%=      5-min Rain = 0
KPFS 201050Z 18009KT 25/17 A2989 RMK A01 T02510170  RH  064%=      5-min Rain = 0
KPFS 201055Z 18009KT 25/17 A2989 RMK A01 T02500170  RH  064%=      5-min Rain = 0
KPFS 201100Z 18008KT 25/17 A2989 RMK A01 T02490171  RH  065%=      5-min Rain = 0
KPFS 201105Z 18008KT 25/17 A2989 RMK A01 T02480171  RH  065%=      5-min Rain = 0
KPFS 201110Z 18008KT 25/17 A299 RMK A01 T02470171  RH  066%=      5-min Rain = 0
KPFS 201115Z 18008KT 25/17 A299 RMK A01 T02460171  RH  066%=      5-min Rain = 0
KPFS 201120Z 18008KT 24/17 A299 RMK A01 T02440171  RH  067%=      5-min Rain = 0
KPFS 201125Z 18008KT 24/17 A299 RMK A01 T02440172  RH  068%=      5-min Rain = 0
KPFS 201130Z 17009KT 24/17 A299 RMK A01 T02430172  RH  068%=      5-min Rain = 0
KPFS 201135Z 18009KT 24/17 A299 RMK A01 T02410172  RH  069%=      5-min Rain = 0
KPFS 201140Z 18008KT 24/17 A299 RMK A01 T02410173  RH  069%=      5-min Rain = 0
KPFS 201145Z 18008KT 24/17 A299 RMK A01 T02390173  RH  070%=      5-min Rain = 0
KPFS 201150Z 17009KT 24/17 A299 RMK A01 T02390173  RH  070%=      5-min Rain = 0
KPFS 201155Z 17010KT 24/17 A2991 RMK A01 T02390174  RH  070%=      5-min Rain = 0
KPFS 201200Z 17009KT 24/18 A2991 RMK A01 T02390175  RH  071%=      5-min Rain = 0
KPFS 201205Z 18009KT 24/18 A2991 RMK A01 T02400175  RH  071%=      5-min Rain = 0
KPFS 201210Z 18009KT 24/18 A2991 RMK A01 T02400176  RH  071%=      5-min Rain = 0
KPFS 201215Z 18009KT 24/18 A2991 RMK A01 T02400176  RH  071%=      5-min Rain = 0
KPFS 201220Z 18009KT 24/18 A2991 RMK A01 T02400178  RH  072%=      5-min Rain = 0
KPFS 201225Z 17010KT 24/18 A2991 RMK A01 T02420179  RH  071%=      5-min Rain = 0
KPFS 201230Z 17010KT 24/18 A2991 RMK A01 T02440180  RH  071%=      5-min Rain = 0
KPFS 201235Z 17010KT 25/18 A2991 RMK A01 T02460180  RH  071%=      5-min Rain = 0
KPFS 201240Z 17010KT 25/18 A2991 RMK A01 T02480181  RH  070%=      5-min Rain = 0
KPFS 201245Z 17010KT 25/18 A2992 RMK A01 T02490182  RH  070%=      5-min Rain = 0
KPFS 201250Z 17010KT 25/18 A2991 RMK A01 T02510183  RH  069%=      5-min Rain = 0
KPFS 201255Z 18009KT 25/18 A2992 RMK A01 T02530184  RH  069%=      5-min Rain = 0
KPFS 201300Z 18009KT 25/19 A2992 RMK A01 T02540185  RH  069%=      5-min Rain = 0
KPFS 201305Z 18009KT 26/19 A2992 RMK A01 T02560185  RH  069%=      5-min Rain = 0
KPFS 201310Z 18009KT 26/19 A2992 RMK A01 T02570186  RH  068%=      5-min Rain = 0
KPFS 201315Z 18009KT 26/19 A2992 RMK A01 T02600187  RH  068%=      5-min Rain = 0
KPFS 201320Z 19011KT 26/19 A2992 RMK A01 T02630187  RH  066%=      5-min Rain = 0
KPFS 201325Z 18010G15KT 27/19 A2992 RMK A01 T02660187  RH  065%=      5-min Rain = 0
KPFS 201330Z 19011KT 27/19 A2992 RMK A01 T02670186  RH  065%=      5-min Rain = 0
KPFS 201335Z 19011G16KT 27/19 A2992 RMK A01 T02680186  RH  064%=      5-min Rain = 0
KPFS 201340Z 19011G17KT 27/19 A2992 RMK A01 T02710187  RH  063%=      5-min Rain = 0
KPFS 201345Z 20012G18KT 27/19 A2992 RMK A01 T02720186  RH  063%=      5-min Rain = 0
KPFS 201350Z 19014G19KT 27/19 A2992 RMK A01 T02730185  RH  062%=      5-min Rain = 0
KPFS 201355Z 19014KT 28/19 A2992 RMK A01 T02750185  RH  061%=      5-min Rain = 0
KPFS 201400Z 19015G23KT 28/18 A2992 RMK A01 T02770184  RH  060%=      5-min Rain = 0
KPFS 201405Z 20014G19KT 28/18 A2992 RMK A01 T02770184  RH  060%=      5-min Rain = 0
KPFS 201410Z 19014G19KT 28/19 A2992 RMK A01 T02810185  RH  059%=      5-min Rain = 0
KPFS 201415Z 20016G21KT 28/18 A2992 RMK A01 T02800183  RH  059%=      5-min Rain = 0
KPFS 201420Z 19014G19KT 29/18 A2992 RMK A01 T02850184  RH  057%=      5-min Rain = 0
KPFS 201425Z 18014G19KT 29/18 A2992 RMK A01 T02860183  RH  057%=      5-min Rain = 0
KPFS 201430Z 18015G24KT 29/18 A2992 RMK A01 T02860183  RH  057%=      5-min Rain = 0
KPFS 201435Z 18015G22KT 29/18 A2992 RMK A01 T02890183  RH  056%=      5-min Rain = 0
KPFS 201440Z 19014G19KT 29/18 A2992 RMK A01 T02910183  RH  055%=      5-min Rain = 0
KPFS 201445Z 20015G21KT 29/18 A2992 RMK A01 T02930182  RH  054%=      5-min Rain = 0
KPFS 201450Z 19017G23KT 29/18 A2992 RMK A01 T02930181  RH  053%=      5-min Rain = 0
KPFS 201455Z 19014G20KT 30/18 A2992 RMK A01 T02950181  RH  053%=      5-min Rain = 0
KPFS 201500Z 19015G21KT 30/18 A2992 RMK A01 T02990181  RH  052%=      5-min Rain = 0
KPFS 201505Z 19016G21KT 30/18 A2992 RMK A01 T02960179  RH  052%=      5-min Rain = 0
KPFS 201510Z 19016G22KT 30/18 A2992 RMK A01 T02990178  RH  051%=      5-min Rain = 0
KPFS 201515Z 20016G23KT 30/18 A2991 RMK A01 T03020177  RH  050%=      5-min Rain = 0
KPFS 201520Z 19015KT 31/18 A2991 RMK A01 T03060179  RH  049%=      5-min Rain = 0
KPFS 201525Z 19015G22KT 31/18 A2991 RMK A01 T03070178  RH  048%=      5-min Rain = 0
KPFS 201530Z 20017G22KT 31/18 A2991 RMK A01 T03070175  RH  048%=      5-min Rain = 0
KPFS 201535Z 19016G22KT 31/18 A2991 RMK A01 T03090176  RH  047%=      5-min Rain = 0
KPFS 201540Z 19015G20KT 31/18 A2991 RMK A01 T03120177  RH  047%=      5-min Rain = 0
KPFS 201545Z 19016G21KT 31/18 A2991 RMK A01 T03140175  RH  046%=      5-min Rain = 0
KPFS 201550Z 19015G20KT 31/18 A2991 RMK A01 T03130175  RH  046%=      5-min Rain = 0
KPFS 201555Z 18016G23KT 32/17 A2991 RMK A01 T03170174  RH  045%=      5-min Rain = 0
KPFS 201600Z 20015G20KT 32/17 A2991 RMK A01 T03180174  RH  044%=      5-min Rain = 0
KPFS 201605Z 20014G20KT 32/18 A2991 RMK A01 T03210175  RH  044%=      5-min Rain = 0
KPFS 201610Z 18014KT 32/17 A2991 RMK A01 T03240174  RH  043%=      5-min Rain = 0
KPFS 201615Z 18012G17KT 33/17 A2991 RMK A01 T03280174  RH  042%=      5-min Rain = 0
KPFS 201620Z 19014G22KT 33/17 A299 RMK A01 T03270173  RH  042%=      5-min Rain = 0
KPFS 201625Z 19014G20KT 33/17 A299 RMK A01 T03290173  RH  041%=      5-min Rain = 0
KPFS 201630Z 20013KT 33/17 A299 RMK A01 T03300171  RH  041%=      5-min Rain = 0
KPFS 201635Z 18013KT 34/17 A299 RMK A01 T03350173  RH  040%=      5-min Rain = 0
KPFS 201640Z 17014G20KT 33/17 A299 RMK A01 T03320172  RH  041%=      5-min Rain = 0
KPFS 201645Z 18014G21KT 33/17 A299 RMK A01 T03340171  RH  040%=      5-min Rain = 0
KPFS 201650Z 17013G19KT 33/17 A299 RMK A01 T03340170  RH  040%=      5-min Rain = 0
KPFS 201655Z 17015G20KT 34/17 A299 RMK A01 T03380170  RH  038%=      5-min Rain = 0
KPFS 201700Z 18011G19KT 34/17 A299 RMK A01 T03390172  RH  039%=      5-min Rain = 0
KPFS 201705Z 19011G17KT 34/17 A2989 RMK A01 T03420172  RH  038%=      5-min Rain = 0
KPFS 201710Z 18012G18KT 34/17 A2989 RMK A01 T03430170  RH  038%=      5-min Rain = 0
KPFS 201715Z 19013G18KT 35/17 A2989 RMK A01 T03450167  RH  036%=      5-min Rain = 0
KPFS 201720Z 19012G17KT 34/17 A2989 RMK A01 T03440167  RH  037%=      5-min Rain = 0
KPFS 201725Z 17011G16KT 35/17 A2989 RMK A01 T03480167  RH  036%=      5-min Rain = 0
KPFS 201730Z 19012G20KT 35/16 A2989 RMK A01 T03480164  RH  035%=      5-min Rain = 0
KPFS 201735Z 17013G21KT 35/17 A2989 RMK A01 T03490167  RH  036%=      5-min Rain = 0
KPFS 201740Z 17012G19KT 35/17 A2989 RMK A01 T03520167  RH  035%=      5-min Rain = 0
KPFS 201745Z 17014KT 35/16 A2988 RMK A01 T03540162  RH  034%=      5-min Rain = 0
KPFS 201750Z 17012G17KT 36/17 A2988 RMK A01 T03570166  RH  034%=      5-min Rain = 0
KPFS 201755Z 19013KT 36/17 A2988 RMK A01 T03600165  RH  033%=      5-min Rain = 0
KPFS 201800Z 18014G19KT 36/16 A2988 RMK A01 T03580161  RH  033%=      5-min Rain = 0
KPFS 201805Z 16014G19KT 36/16 A2988 RMK A01 T03580162  RH  033%=      5-min Rain = 0
KPFS 201810Z 16013G18KT 36/16 A2988 RMK A01 T03630162  RH  032%=      5-min Rain = 0
KPFS 201815Z 19013G18KT 36/16 A2988 RMK A01 T03620158  RH  031%=      5-min Rain = 0
KPFS 201820Z 20013G19KT 36/16 A2988 RMK A01 T03640159  RH  031%=      5-min Rain = 0
KPFS 201825Z 20011G18KT 36/16 A2988 RMK A01 T03630160  RH  032%=      5-min Rain = 0
KPFS 201830Z 19013G20KT 37/16 A2988 RMK A01 T03660160  RH  031%=      5-min Rain = 0
KPFS 201835Z 18010KT 37/16 A2988 RMK A01 T03660162  RH  031%=      5-min Rain = 0
KPFS 201840Z 18014G21KT 37/16 A2988 RMK A01 T03690155  RH  030%=      5-min Rain = 0
KPFS 201845Z 17011G22KT 37/16 A2988 RMK A01 T03690160  RH  031%=      5-min Rain = 0
KPFS 201850Z 16012G17KT 37/16 A2988 RMK A01 T03710155  RH  029%=      5-min Rain = 0
KPFS 201855Z 19010G19KT 38/16 A2987 RMK A01 T03750159  RH  029%=      5-min Rain = 0
KPFS 201900Z 16014KT 37/15 A2987 RMK A01 T03720154  RH  029%=      5-min Rain = 0
KPFS 201905Z 18011G16KT 37/16 A2987 RMK A01 T03710156  RH  029%=      5-min Rain = 0
KPFS 201910Z 19012G17KT 37/16 A2987 RMK A01 T03710156  RH  029%=      5-min Rain = 0
KPFS 201915Z 17012G19KT 38/16 A2987 RMK A01 T03750158  RH  029%=      5-min Rain = 0
KPFS 201920Z 18014G20KT 37/15 A2986 RMK A01 T03730152  RH  028%=      5-min Rain = 0
KPFS 201925Z 18012G17KT 38/15 A2986 RMK A01 T03800152  RH  027%=      5-min Rain = 0
KPFS 201930Z 17012G20KT 38/16 A2986 RMK A01 T03770155  RH  028%=      5-min Rain = 0
KPFS 201935Z 18014G21KT 38/15 A2986 RMK A01 T03810149  RH  027%=      5-min Rain = 0
KPFS 201940Z 17014G20KT 38/15 A2985 RMK A01 T03800151  RH  027%=      5-min Rain = 0
KPFS 201945Z 15012G17KT 38/15 A2985 RMK A01 T03790152  RH  028%=      5-min Rain = 0
KPFS 201950Z 15014G23KT 39/15 A2985 RMK A01 T03850149  RH  026%=      5-min Rain = 0
KPFS 201955Z 16014G21KT 38/15 A2984 RMK A01 T03810149  RH  027%=      5-min Rain = 0
KPFS 202000Z 16014G20KT 39/15 A2984 RMK A01 T03850153  RH  027%=      5-min Rain = 0
KPFS 202005Z 16015G22KT 39/14 A2984 RMK A01 T03860143  RH  025%=      5-min Rain = 0
KPFS 202010Z 17013G18KT 39/15 A2984 RMK A01 T03870147  RH  025%=      5-min Rain = 0
KPFS 202015Z 17011G17KT 39/14 A2984 RMK A01 T03850142  RH  025%=      5-min Rain = 0
KPFS 202020Z 15014G20KT 39/14 A2984 RMK A01 T03860141  RH  024%=      5-min Rain = 0
KPFS 202025Z 16015G20KT 39/15 A2984 RMK A01 T03850145  RH  025%=      5-min Rain = 0
KPFS 202030Z 16012G18KT 39/14 A2984 RMK A01 T03860144  RH  025%=      5-min Rain = 0
KPFS 202035Z 16011G17KT 39/15 A2983 RMK A01 T03900145  RH  025%=      5-min Rain = 0
KPFS 202040Z 16014KT 39/14 A2983 RMK A01 T03900143  RH  024%=      5-min Rain = 0
KPFS 202045Z 16012KT 39/14 A2983 RMK A01 T03890141  RH  024%=      5-min Rain = 0
KPFS 202050Z 16013G18KT 39/15 A2983 RMK A01 T03880145  RH  025%=      5-min Rain = 0
KPFS 202055Z 16014G19KT 39/14 A2983 RMK A01 T03870144  RH  025%=      5-min Rain = 0
KPFS 202100Z 16014G23KT 39/15 A2983 RMK A01 T03910147  RH  025%=      5-min Rain = 0
KPFS 202105Z 16014G22KT 39/15 A2983 RMK A01 T03880145  RH  025%=      5-min Rain = 0
KPFS 202110Z 17014G21KT 39/14 A2983 RMK A01 T03920142  RH  024%=      5-min Rain = 0
KPFS 202115Z 17011G18KT 39/15 A2983 RMK A01 T03900148  RH  025%=      5-min Rain = 0
KPFS 202120Z 18014G20KT 39/15 A2983 RMK A01 T03920145  RH  024%=      5-min Rain = 0
KPFS 202125Z 18012G17KT 39/15 A2983 RMK A01 T03940146  RH  024%=      5-min Rain = 0
KPFS 202130Z 14014G19KT 39/14 A2982 RMK A01 T03910141  RH  024%=      5-min Rain = 0
KPFS 202135Z 16015G20KT 39/15 A2982 RMK A01 T03900146  RH  025%=      5-min Rain = 0
KPFS 202140Z 16012G17KT 39/14 A2982 RMK A01 T03900143  RH  024%=      5-min Rain = 0
KPFS 202145Z 17013G18KT 40/14 A2982 RMK A01 T03950144  RH  024%=      5-min Rain = 0
KPFS 202150Z 16012G17KT 39/14 A2981 RMK A01 T03890143  RH  024%=      5-min Rain = 0
KPFS 202155Z 16013G21KT 39/15 A2981 RMK A01 T03900145  RH  025%=      5-min Rain = 0
KPFS 202200Z 16014G20KT 39/15 A2981 RMK A01 T03890146  RH  025%=      5-min Rain = 0
KPFS 202205Z 17015G22KT 39/14 A2981 RMK A01 T03920136  RH  023%=      5-min Rain = 0
KPFS 202210Z 18010G16KT 39/13 A2981 RMK A01 T03900134  RH  023%=      5-min Rain = 0
KPFS 202215Z 18013G19KT 39/14 A2981 RMK A01 T03900139  RH  024%=      5-min Rain = 0
KPFS 202220Z 16015G20KT 39/14 A298 RMK A01 T03900143  RH  024%=      5-min Rain = 0
KPFS 202225Z 16014G19KT 39/14 A298 RMK A01 T03900143  RH  024%=      5-min Rain = 0
KPFS 202230Z 17014G22KT 39/15 A298 RMK A01 T03940146  RH  024%=      5-min Rain = 0
KPFS 202235Z 16014G19KT 39/15 A298 RMK A01 T03890145  RH  025%=      5-min Rain = 0
KPFS 202240Z 16013G18KT 39/15 A298 RMK A01 T03900145  RH  025%=      5-min Rain = 0
KPFS 202245Z 16012G17KT 39/15 A298 RMK A01 T03900146  RH  025%=      5-min Rain = 0
KPFS 202250Z 17015G20KT 39/15 A298 RMK A01 T03900146  RH  025%=      5-min Rain = 0
KPFS 202255Z 17015G20KT 39/15 A2979 RMK A01 T03880147  RH  025%=      5-min Rain = 0
KPFS 202300Z 17013G21KT 39/15 A2979 RMK A01 T03910149  RH  025%=      5-min Rain = 0
KPFS 202305Z 17013G19KT 39/15 A2979 RMK A01 T03900148  RH  025%=      5-min Rain = 0
KPFS 202310Z 16014G21KT 39/15 A2979 RMK A01 T03870147  RH  025%=      5-min Rain = 0
KPFS 202315Z 16016G21KT 39/15 A2979 RMK A01 T03850149  RH  026%=      5-min Rain = 0
KPFS 202320Z 16015KT 38/15 A2979 RMK A01 T03830150  RH  026%=      5-min Rain = 0
KPFS 202325Z 15014G19KT 38/15 A2979 RMK A01 T03840150  RH  026%=      5-min Rain = 0
KPFS 202330Z 15012G17KT 38/15 A2979 RMK A01 T03840151  RH  027%=      5-min Rain = 0
KPFS 202335Z 16015G21KT 38/15 A2979 RMK A01 T03840152  RH  027%=      5-min Rain = 0
KPFS 202340Z 16015G20KT 38/15 A2979 RMK A01 T03820152  RH  027%=      5-min Rain = 0
KPFS 202345Z 16014G20KT 38/15 A2979 RMK A01 T03810153  RH  027%=      5-min Rain = 0
KPFS 202350Z 15016KT 38/15 A2979 RMK A01 T03790152  RH  027%=      5-min Rain = 0
KPFS 202355Z 16016G22KT 38/15 A2979 RMK A01 T03780151  RH  027%=      5-min Rain = 0
KPFS 210000Z 15016G22KT 38/15 A2978 RMK A01 T03750150  RH  028%=      5-min Rain = 0
KPFS 210005Z 15015G25KT 38/15 A2979 RMK A01 T03760151  RH  028%=      5-min Rain = 0
KPFS 210010Z 16016G22KT 38/15 A2979 RMK A01 T03750151  RH  028%=      5-min Rain = 0
KPFS 210015Z 16017G24KT 37/15 A2979 RMK A01 T03730150  RH  028%=      5-min Rain = 0
KPFS 210020Z 16017G22KT 37/15 A2979 RMK A01 T03720149  RH  028%=      5-min Rain = 0
KPFS 210025Z 15017KT 37/15 A2979 RMK A01 T03700148  RH  028%=      5-min Rain = 0
KPFS 210030Z 15014G20KT 37/15 A2979 RMK A01 T03690148  RH  028%=      5-min Rain = 0
KPFS 210035Z 15014G19KT 37/15 A2979 RMK A01 T03680147  RH  028%=      5-min Rain = 0
KPFS 210040Z 15014G22KT 37/15 A2979 RMK A01 T03670148  RH  028%=      5-min Rain = 0
KPFS 210045Z 15016G21KT 37/15 A298 RMK A01 T03650146  RH  028%=      5-min Rain = 0
KPFS 210050Z 15016G22KT 36/15 A298 RMK A01 T03640145  RH  028%=      5-min Rain = 0
KPFS 210055Z 16015G21KT 36/14 A298 RMK A01 T03620144  RH  028%=      5-min Rain = 0
KPFS 210100Z 16014G20KT 36/14 A298 RMK A01 T03610143  RH  028%=      5-min Rain = 0
KPFS 210105Z 15014G22KT 36/14 A298 RMK A01 T03590140  RH  028%=      5-min Rain = 0
KPFS 210110Z 15014G19KT 36/14 A298 RMK A01 T03580139  RH  028%=      5-min Rain = 0
KPFS 210115Z 15014KT 36/14 A298 RMK A01 T03560136  RH  028%=      5-min Rain = 0
KPFS 210120Z 15015G25KT 36/13 A298 RMK A01 T03550133  RH  027%=      5-min Rain = 0
KPFS 210125Z 15014KT 35/13 A298 RMK A01 T03540129  RH  027%=      5-min Rain = 0
KPFS 210130Z 15015G21KT 35/13 A298 RMK A01 T03530128  RH  027%=      5-min Rain = 0
KPFS 210135Z 15012KT 35/13 A2981 RMK A01 T03500128  RH  027%=      5-min Rain = 0
KPFS 210140Z 15012G17KT 35/13 A2981 RMK A01 T03480127  RH  027%=      5-min Rain = 0
KPFS 210145Z 15012KT 35/13 A2981 RMK A01 T03470125  RH  027%=      5-min Rain = 0
KPFS 210150Z 15011KT 34/13 A2981 RMK A01 T03440125  RH  028%=      5-min Rain = 0
KPFS 210155Z 15010KT 34/13 A2981 RMK A01 T03410125  RH  028%=      5-min Rain = 0
KPFS 210200Z 15011KT 34/12 A2981 RMK A01 T03380124  RH  028%=      5-min Rain = 0
KPFS 210205Z 15010KT 34/12 A2981 RMK A01 T03370124  RH  029%=      5-min Rain = 0
KPFS 210210Z 14010KT 33/12 A2981 RMK A01 T03330124  RH  029%=      5-min Rain = 0
KPFS 210215Z 14009KT 33/12 A2981 RMK A01 T03300124  RH  030%=      5-min Rain = 0
KPFS 210220Z 14009KT 33/12 A2982 RMK A01 T03270124  RH  030%=      5-min Rain = 0
KPFS 210225Z 14010KT 33/13 A2982 RMK A01 T03250126  RH  031%=      5-min Rain = 0
KPFS 210230Z 14010KT 32/13 A2982 RMK A01 T03230129  RH  032%=      5-min Rain = 0
KPFS 210235Z 14010KT 32/13 A2982 RMK A01 T03220132  RH  033%=      5-min Rain = 0
KPFS 210240Z 14010KT 32/13 A2983 RMK A01 T03200134  RH  034%=      5-min Rain = 0
KPFS 210245Z 14010KT 32/14 A2983 RMK A01 T03180136  RH  034%=      5-min Rain = 0
KPFS 210250Z 14011G16KT 32/14 A2983 RMK A01 T03180137  RH  035%=      5-min Rain = 0
KPFS 210255Z 14011KT 32/14 A2983 RMK A01 T03180136  RH  035%=      5-min Rain = 0
KPFS 210300Z 14012KT 32/14 A2983 RMK A01 T03180135  RH  034%=      5-min Rain = 0
KPFS 210305Z 14013KT 32/13 A2983 RMK A01 T03180134  RH  034%=      5-min Rain = 0
KPFS 210310Z 15011G17KT 32/13 A2983 RMK A01 T03170133  RH  034%=      5-min Rain = 0
KPFS 210315Z 15012KT 32/13 A2983 RMK A01 T03160132  RH  034%=      5-min Rain = 0
KPFS 210320Z 14011KT 32/13 A2983 RMK A01 T03150131  RH  034%=      5-min Rain = 0
KPFS 210325Z 14011KT 31/13 A2984 RMK A01 T03130130  RH  034%=      5-min Rain = 0
KPFS 210330Z 14011KT 31/13 A2984 RMK A01 T03130129  RH  034%=      5-min Rain = 0
KPFS 210335Z 14012KT 31/13 A2984 RMK A01 T03120128  RH  034%=      5-min Rain = 0
KPFS 210340Z 14011KT 31/13 A2985 RMK A01 T03110127  RH  034%=      5-min Rain = 0
KPFS 210345Z 14011KT 31/13 A2985 RMK A01 T03100127  RH  034%=      5-min Rain = 0
KPFS 210350Z 14011KT 31/13 A2985 RMK A01 T03080126  RH  034%=      5-min Rain = 0
KPFS 210355Z 14010KT 31/13 A2985 RMK A01 T03050126  RH  035%=      5-min Rain = 0
KPFS 210400Z 14010KT 30/13 A2985 RMK A01 T03030126  RH  035%=      5-min Rain = 0
KPFS 210405Z 14010KT 30/13 A2985 RMK A01 T03010125  RH  035%=      5-min Rain = 0
KPFS 210410Z 14011KT 30/13 A2986 RMK A01 T02990125  RH  036%=      5-min Rain = 0
KPFS 210415Z 14011KT 30/13 A2986 RMK A01 T02990125  RH  036%=      5-min Rain = 0
KPFS 210420Z 14010KT 30/13 A2986 RMK A01 T02980127  RH  036%=      5-min Rain = 0
KPFS 210425Z 14011KT 30/13 A2986 RMK A01 T02960128  RH  037%=      5-min Rain = 0
KPFS 210430Z 14010KT 30/13 A2986 RMK A01 T02960129  RH  037%=      5-min Rain = 0
KPFS 210435Z 14010KT 30/13 A2986 RMK A01 T02950130  RH  038%=      5-min Rain = 0
KPFS 210440Z 15010KT 29/13 A2987 RMK A01 T02940132  RH  038%=      5-min Rain = 0
KPFS 210445Z 15010KT 29/13 A2987 RMK A01 T02930133  RH  039%=      5-min Rain = 0
KPFS 210450Z 15011KT 29/14 A2987 RMK A01 T02920135  RH  040%=      5-min Rain = 0
KPFS 210455Z 15012KT 29/14 A2987 RMK A01 T02930136  RH  040%=      5-min Rain = 0

Page generated in 0.0093 seconds.